createdAt,value
2019-02-15T00:00:55.980Z,67.64
2019-02-15T00:01:55.969Z,67.95
2019-02-15T00:02:55.998Z,68.05
2019-02-15T00:03:55.948Z,68.05
2019-02-15T00:04:55.935Z,68.05
2019-02-15T00:05:55.926Z,68.16
2019-02-15T00:06:55.911Z,68.68
2019-02-15T00:07:55.901Z,68.57
2019-02-15T00:08:55.906Z,68.68
2019-02-15T00:09:55.876Z,69.09
2019-02-15T00:10:55.865Z,68.57
2019-02-15T00:11:55.854Z,68.88
2019-02-15T00:12:55.841Z,68.99
2019-02-15T00:13:55.872Z,69.54
2019-02-15T00:14:55.818Z,69.51
2019-02-15T00:15:55.807Z,69.82
2019-02-15T00:16:55.797Z,69.74
2019-02-15T00:17:55.784Z,69.85
2019-02-15T00:18:55.773Z,70.20
2019-02-15T00:19:55.778Z,70.61
2019-02-15T00:20:55.749Z,70.82
2019-02-15T00:21:55.737Z,70.40
2019-02-15T00:22:55.726Z,70.51
2019-02-15T00:23:55.714Z,71.44
2019-02-15T00:24:55.719Z,70.92
2019-02-15T00:25:55.691Z,71.55
2019-02-15T00:26:55.680Z,70.72
2019-02-15T00:27:55.670Z,70.51
2019-02-15T00:28:55.657Z,70.85
2019-02-15T00:29:55.666Z,70.61
2019-02-15T00:30:55.634Z,71.17
2019-02-15T00:31:55.621Z,71.13
2019-02-15T00:32:55.609Z,71.03
2019-02-15T00:33:55.599Z,70.75
2019-02-15T00:34:55.611Z,71.13
2019-02-15T00:35:55.575Z,71.69
2019-02-15T00:36:55.563Z,71.27
2019-02-15T00:37:55.551Z,70.99
2019-02-15T00:38:55.547Z,71.58
2019-02-15T00:39:55.531Z,71.58
2019-02-15T00:40:55.537Z,71.69
2019-02-15T00:41:55.504Z,72.31
2019-02-15T00:42:55.493Z,72.72
2019-02-15T00:43:55.482Z,72.66
2019-02-15T00:44:55.473Z,71.82
2019-02-15T00:45:55.485Z,72.97
2019-02-15T00:46:55.447Z,73.35
2019-02-15T00:47:55.436Z,73.18
2019-02-15T00:48:55.425Z,73.18
2019-02-15T00:49:55.412Z,72.97
2019-02-15T00:50:55.402Z,73.38
2019-02-15T00:51:55.410Z,73.63
2019-02-15T00:52:55.378Z,73.59
2019-02-15T00:53:55.367Z,74.11
2019-02-15T00:54:55.355Z,73.94
2019-02-15T00:55:55.345Z,74.25
2019-02-15T00:56:55.353Z,73.94
2019-02-15T00:57:55.323Z,74.25
2019-02-15T00:58:55.309Z,74.87
2019-02-15T00:59:55.295Z,75.32
2019-02-15T01:00:55.286Z,75.71
2019-02-15T01:01:55.294Z,75.32
2019-02-15T01:02:55.261Z,75.22
2019-02-15T01:03:55.253Z,75.74
2019-02-15T01:04:55.239Z,75.32
2019-02-15T01:05:55.228Z,75.85
2019-02-15T01:06:55.233Z,75.53
2019-02-15T01:07:55.205Z,75.53
2019-02-15T01:08:55.192Z,75.43
2019-02-15T01:09:55.182Z,75.95
2019-02-15T01:10:55.168Z,75.53
2019-02-15T01:11:55.182Z,75.74
2019-02-15T01:12:55.150Z,75.95
2019-02-15T01:13:55.132Z,76.16
2019-02-15T01:14:55.124Z,75.85
2019-02-15T01:15:55.117Z,75.95
2019-02-15T01:16:55.098Z,76.37
2019-02-15T01:17:55.106Z,76.16
2019-02-15T01:18:55.079Z,76.37
2019-02-15T01:19:55.063Z,75.74
2019-02-15T01:20:55.052Z,75.85
2019-02-15T01:21:55.047Z,75.85
2019-02-15T01:22:55.049Z,75.74
2019-02-15T01:23:55.017Z,75.32
2019-02-15T01:24:55.009Z,76.06
2019-02-15T01:25:54.995Z,75.85
2019-02-15T01:26:54.986Z,76.51
2019-02-15T01:27:54.988Z,76.51
2019-02-15T01:28:54.960Z,76.30
2019-02-15T01:29:54.948Z,76.72
2019-02-15T01:30:54.936Z,77.03
2019-02-15T01:31:54.926Z,77.23
2019-02-15T01:32:54.938Z,77.23
2019-02-15T01:33:54.901Z,77.45
2019-02-15T01:34:54.889Z,77.23
2019-02-15T01:35:54.879Z,77.45
2019-02-15T01:36:54.867Z,77.23
2019-02-15T01:37:54.854Z,77.23
2019-02-15T01:38:54.861Z,77.20
2019-02-15T01:39:54.831Z,77.13
2019-02-15T01:40:54.821Z,77.34
2019-02-15T01:41:54.809Z,77.03
2019-02-15T01:42:54.795Z,77.93
2019-02-15T01:43:54.805Z,77.97
2019-02-15T01:44:54.775Z,78.38
2019-02-15T01:45:54.764Z,77.62
2019-02-15T01:46:54.756Z,78.17
2019-02-15T01:47:54.741Z,77.86
2019-02-15T01:48:54.744Z,78.07
2019-02-15T01:49:54.718Z,77.72
2019-02-15T01:50:54.704Z,78.14
2019-02-15T01:51:54.694Z,78.14
2019-02-15T01:52:54.684Z,77.31
2019-02-15T01:53:54.694Z,77.62
2019-02-15T01:54:54.657Z,77.13
2019-02-15T01:55:54.645Z,77.10
2019-02-15T01:56:54.633Z,77.41
2019-02-15T01:57:54.621Z,76.78
2019-02-15T01:58:54.612Z,76.33
2019-02-15T01:59:54.618Z,76.65
2019-02-15T02:00:54.626Z,75.92
2019-02-15T02:01:54.574Z,76.02
2019-02-15T02:02:54.565Z,75.71
2019-02-15T02:03:54.594Z,75.81
2019-02-15T02:04:54.560Z,75.71
2019-02-15T02:05:54.529Z,75.50
2019-02-15T02:06:54.519Z,75.81
2019-02-15T02:07:54.505Z,76.06
2019-02-15T02:08:54.497Z,75.85
2019-02-15T02:09:54.506Z,75.12
2019-02-15T02:10:54.470Z,75.95
2019-02-15T02:11:54.461Z,75.53
2019-02-15T02:12:54.451Z,75.32
2019-02-15T02:13:54.436Z,74.80
2019-02-15T02:14:54.423Z,75.01
2019-02-15T02:15:54.435Z,75.22
2019-02-15T02:16:54.402Z,75.26
2019-02-15T02:17:54.390Z,75.36
2019-02-15T02:18:54.396Z,75.74
2019-02-15T02:19:54.365Z,75.22
2019-02-15T02:20:54.357Z,75.26
2019-02-15T02:21:54.343Z,75.36
2019-02-15T02:22:54.331Z,75.12
2019-02-15T02:23:54.337Z,75.01
2019-02-15T02:24:54.307Z,75.01
2019-02-15T02:25:54.295Z,75.98
2019-02-15T02:26:54.284Z,76.37
2019-02-15T02:27:54.353Z,75.53
2019-02-15T02:28:54.280Z,75.57
2019-02-15T02:29:54.251Z,75.57
2019-02-15T02:30:54.238Z,75.67
2019-02-15T02:31:54.227Z,75.57
2019-02-15T02:32:54.215Z,75.78
2019-02-15T02:33:54.222Z,76.30
2019-02-15T02:34:54.766Z,75.98
2019-02-15T02:35:54.184Z,76.16
2019-02-15T02:36:54.170Z,75.95
2019-02-15T02:37:54.160Z,75.67
2019-02-15T02:38:54.164Z,75.22
2019-02-15T02:39:54.132Z,76.26
2019-02-15T02:40:54.124Z,75.85
2019-02-15T02:41:54.109Z,75.40
2019-02-15T02:42:54.099Z,74.98
2019-02-15T02:43:59.689Z,74.98
2019-02-15T02:44:55.074Z,74.87
2019-02-15T02:45:54.064Z,74.15
2019-02-15T02:46:54.051Z,74.11
2019-02-15T02:47:54.041Z,73.69
2019-02-15T02:48:54.053Z,73.59
2019-02-15T02:49:54.023Z,73.03
2019-02-15T02:50:54.006Z,72.69
2019-02-15T02:51:53.993Z,71.41
2019-02-15T02:52:53.985Z,71.62
2019-02-15T02:53:53.991Z,71.10
2019-02-15T02:54:53.968Z,71.07
2019-02-15T02:55:53.949Z,70.44
2019-02-15T02:56:53.936Z,70.44
2019-02-15T02:57:53.924Z,70.10
2019-02-15T02:58:53.959Z,69.79
2019-02-15T02:59:53.900Z,69.58
2019-02-15T03:00:53.890Z,69.37
2019-02-15T03:01:53.877Z,69.06
2019-02-15T03:02:53.866Z,69.17
2019-02-15T03:03:53.858Z,69.17
2019-02-15T03:04:53.862Z,69.17
2019-02-15T03:05:53.832Z,69.51
2019-02-15T03:06:53.827Z,69.68
2019-02-15T03:07:53.846Z,69.61
2019-02-15T03:08:53.796Z,69.58
2019-02-15T03:09:53.803Z,69.68
2019-02-15T03:10:53.772Z,69.92
2019-02-15T03:11:53.763Z,70.34
2019-02-15T03:12:53.749Z,70.13
2019-02-15T03:13:53.740Z,70.75
2019-02-15T03:14:53.747Z,70.44
2019-02-15T03:15:53.717Z,70.54
2019-02-15T03:16:53.702Z,70.37
2019-02-15T03:17:53.695Z,71.41
2019-02-15T03:18:53.680Z,71.13
2019-02-15T03:19:53.687Z,72.07
2019-02-15T03:20:53.658Z,72.17
2019-02-15T03:21:53.645Z,71.86
2019-02-15T03:22:53.634Z,72.69
2019-02-15T03:23:53.622Z,72.69
2019-02-15T03:24:53.629Z,72.49
2019-02-15T03:25:53.598Z,72.38
2019-02-15T03:26:53.587Z,72.49
2019-02-15T03:27:53.580Z,72.69
2019-02-15T03:28:53.562Z,72.17
2019-02-15T03:29:53.588Z,72.31
2019-02-15T03:30:53.542Z,72.93
2019-02-15T03:31:53.538Z,73.14
2019-02-15T03:32:53.518Z,73.46
2019-02-15T03:33:53.506Z,73.07
2019-02-15T03:34:53.498Z,73.38
2019-02-15T03:35:53.505Z,73.59
2019-02-15T03:36:53.473Z,74.15
2019-02-15T03:37:53.457Z,75.29
2019-02-15T03:38:53.448Z,75.09
2019-02-15T03:39:53.448Z,75.19
2019-02-15T03:40:53.446Z,75.50
2019-02-15T03:41:53.412Z,75.19
2019-02-15T03:42:53.402Z,75.32
2019-02-15T03:43:53.391Z,75.53
2019-02-15T03:44:53.380Z,75.53
2019-02-15T03:45:53.386Z,75.64
2019-02-15T03:46:53.353Z,75.43
2019-02-15T03:47:53.342Z,75.43
2019-02-15T03:48:53.334Z,75.74
2019-02-15T03:49:53.318Z,75.85
2019-02-15T03:50:53.339Z,75.74
2019-02-15T03:51:53.299Z,75.29
2019-02-15T03:52:53.291Z,75.60
2019-02-15T03:53:53.272Z,75.74
2019-02-15T03:54:53.261Z,75.40
2019-02-15T03:55:53.249Z,75.40
2019-02-15T03:56:53.260Z,75.29
2019-02-15T03:57:53.229Z,75.09
2019-02-15T03:58:53.216Z,74.84
2019-02-15T03:59:53.205Z,74.74
2019-02-15T04:00:53.190Z,74.43
2019-02-15T04:01:53.198Z,74.11
2019-02-15T04:02:53.169Z,73.80
2019-02-15T04:03:53.163Z,73.56
2019-02-15T04:04:53.145Z,72.93
2019-02-15T04:05:53.134Z,73.25
2019-02-15T04:06:53.140Z,73.25
2019-02-15T04:07:53.122Z,73.46
2019-02-15T04:08:53.100Z,72.93
2019-02-15T04:09:53.092Z,72.97
2019-02-15T04:10:53.077Z,73.25
2019-02-15T04:11:53.081Z,73.38
2019-02-15T04:12:53.053Z,73.69
2019-02-15T04:13:53.057Z,73.25
2019-02-15T04:14:53.029Z,73.46
2019-02-15T04:15:53.019Z,73.03
2019-02-15T04:16:53.025Z,72.93
2019-02-15T04:17:52.999Z,72.80
2019-02-15T04:18:52.984Z,72.93
2019-02-15T04:19:52.973Z,72.31
2019-02-15T04:20:52.960Z,72.10
2019-02-15T04:21:52.972Z,73.03
2019-02-15T04:22:52.942Z,72.20
2019-02-15T04:23:52.930Z,72.59
2019-02-15T04:24:52.913Z,71.55
2019-02-15T04:25:52.900Z,71.83
2019-02-15T04:26:52.889Z,71.93
2019-02-15T04:27:52.902Z,71.86
2019-02-15T04:28:52.865Z,71.65
2019-02-15T04:29:52.855Z,71.86
2019-02-15T04:30:52.844Z,71.41
2019-02-15T04:31:52.852Z,71.93
2019-02-15T04:32:52.838Z,71.51
2019-02-15T04:33:52.808Z,71.83
2019-02-15T04:34:52.796Z,71.51
2019-02-15T04:35:52.784Z,71.48
2019-02-15T04:36:52.773Z,71.59
2019-02-15T04:37:52.780Z,70.97
2019-02-15T04:38:52.754Z,71.07
2019-02-15T04:39:52.739Z,71.28
2019-02-15T04:40:52.739Z,71.17
2019-02-15T04:41:52.714Z,71.41
2019-02-15T04:42:52.766Z,71.72
2019-02-15T04:43:52.692Z,71.69
2019-02-15T04:44:52.679Z,70.97
2019-02-15T04:45:52.672Z,71.28
2019-02-15T04:46:52.656Z,71.51
2019-02-15T04:47:52.663Z,71.48
2019-02-15T04:48:52.633Z,72.00
2019-02-15T04:49:52.621Z,71.07
2019-02-15T04:50:52.610Z,71.48
2019-02-15T04:51:52.599Z,71.80
2019-02-15T04:52:52.608Z,71.03
2019-02-15T04:53:52.579Z,71.24
2019-02-15T04:54:52.563Z,70.93
2019-02-15T04:55:52.554Z,70.41
2019-02-15T04:56:52.541Z,70.75
2019-02-15T04:57:52.559Z,70.86
2019-02-15T04:58:52.554Z,71.17
2019-02-15T04:59:52.596Z,71.38
2019-02-15T05:00:52.492Z,71.03
2019-02-15T05:01:52.482Z,71.17
2019-02-15T05:02:52.469Z,71.28
2019-02-15T05:03:52.478Z,71.07
2019-02-15T05:04:52.448Z,71.17
2019-02-15T05:05:52.438Z,70.89
2019-02-15T05:06:52.424Z,71.62
2019-02-15T05:07:52.418Z,72.03
2019-02-15T05:08:52.421Z,72.49
2019-02-15T05:09:52.390Z,72.59
2019-02-15T05:10:52.377Z,73.11
2019-02-15T05:11:52.370Z,73.03
2019-02-15T05:12:52.354Z,72.83
2019-02-15T05:13:52.359Z,73.46
2019-02-15T05:14:53.419Z,73.25
2019-02-15T05:15:52.319Z,73.59
2019-02-15T05:16:52.309Z,73.69
2019-02-15T05:17:52.294Z,74.32
2019-02-15T05:18:52.304Z,74.32
2019-02-15T05:19:52.278Z,74.95
2019-02-15T05:20:52.267Z,74.98
2019-02-15T05:21:52.249Z,75.50
2019-02-15T05:22:52.242Z,75.71
2019-02-15T05:23:52.300Z,76.12
2019-02-15T05:24:52.216Z,76.43
2019-02-15T05:25:52.201Z,76.54
2019-02-15T05:26:52.192Z,75.88
2019-02-15T05:27:52.179Z,75.43
2019-02-15T05:28:52.169Z,74.91
2019-02-15T05:29:52.176Z,74.04
2019-02-15T05:30:52.144Z,73.32
2019-02-15T05:31:52.137Z,72.86
2019-02-15T05:32:52.122Z,73.07
2019-02-15T05:33:52.111Z,72.66
2019-02-15T05:34:52.115Z,72.66
2019-02-15T05:35:52.107Z,72.69
2019-02-15T05:36:52.096Z,72.80
2019-02-15T05:37:52.061Z,72.90
2019-02-15T05:38:52.088Z,73.63
2019-02-15T05:39:52.062Z,73.56
2019-02-15T05:40:52.030Z,75.32
2019-02-15T05:41:52.020Z,75.12
2019-02-15T05:42:52.007Z,74.88
2019-02-15T05:43:51.994Z,75.50
2019-02-15T05:44:52.009Z,75.32
2019-02-15T05:45:52.025Z,73.46
2019-02-15T05:46:51.959Z,72.00
2019-02-15T05:47:51.947Z,72.28
2019-02-15T05:48:51.938Z,71.34
2019-02-15T05:49:51.945Z,70.69
2019-02-15T05:50:51.919Z,71.24
2019-02-15T05:51:51.902Z,70.62
2019-02-15T05:52:51.891Z,70.93
2019-02-15T05:53:51.879Z,71.69
2019-02-15T05:54:51.890Z,71.38
2019-02-15T05:55:51.923Z,72.00
2019-02-15T05:56:51.846Z,72.42
2019-02-15T05:57:51.835Z,72.31
2019-02-15T05:58:51.822Z,72.31
2019-02-15T05:59:51.812Z,71.72
2019-02-15T06:00:51.821Z,72.45
2019-02-15T06:01:51.791Z,72.63
2019-02-15T06:02:51.786Z,72.03
2019-02-15T06:03:51.767Z,72.45
2019-02-15T06:04:51.754Z,72.42
2019-02-15T06:05:51.762Z,72.55
2019-02-15T06:06:51.735Z,72.73
2019-02-15T06:07:51.719Z,72.55
2019-02-15T06:08:51.712Z,72.86
2019-02-15T06:09:51.698Z,73.91
2019-02-15T06:10:51.709Z,73.49
2019-02-15T06:11:51.677Z,72.42
2019-02-15T06:12:51.663Z,72.42
2019-02-15T06:13:51.654Z,72.83
2019-02-15T06:14:51.644Z,72.63
2019-02-15T06:15:51.647Z,71.48
2019-02-15T06:16:51.621Z,72.42
2019-02-15T06:17:51.604Z,71.80
2019-02-15T06:18:51.593Z,72.73
2019-02-15T06:19:51.582Z,72.66
2019-02-15T06:20:51.593Z,72.00
2019-02-15T06:21:51.608Z,72.66
2019-02-15T06:22:51.546Z,72.34
2019-02-15T06:23:51.536Z,73.70
2019-02-15T06:24:51.526Z,73.87
2019-02-15T06:25:51.527Z,72.38
2019-02-15T06:26:51.520Z,71.69
2019-02-15T06:27:51.490Z,71.69
2019-02-15T06:28:51.478Z,71.59
2019-02-15T06:29:51.472Z,71.48
2019-02-15T06:30:51.461Z,71.59
2019-02-15T06:31:51.463Z,72.52
2019-02-15T06:32:51.438Z,72.11
2019-02-15T06:33:51.420Z,72.42
2019-02-15T06:34:51.412Z,72.14
2019-02-15T06:35:51.398Z,72.73
2019-02-15T06:36:51.467Z,72.21
2019-02-15T06:37:51.375Z,72.21
2019-02-15T06:38:51.363Z,71.80
2019-02-15T06:39:51.351Z,71.69
2019-02-15T06:40:51.340Z,72.97
2019-02-15T06:41:51.368Z,72.66
2019-02-15T06:42:51.318Z,71.11
2019-02-15T06:43:51.309Z,70.38
2019-02-15T06:44:51.297Z,70.59
2019-02-15T06:45:51.287Z,70.38
2019-02-15T06:46:51.295Z,71.21
2019-02-15T06:47:51.262Z,70.83
2019-02-15T06:48:51.252Z,71.03
2019-02-15T06:49:51.242Z,71.76
2019-02-15T06:50:51.229Z,71.55
2019-02-15T06:51:51.235Z,71.28
2019-02-15T06:52:51.214Z,72.52
2019-02-15T06:53:51.191Z,72.21
2019-02-15T06:54:51.184Z,72.63
2019-02-15T06:55:51.170Z,72.52
2019-02-15T06:56:51.182Z,72.42
2019-02-15T06:57:51.151Z,72.11
2019-02-15T06:58:51.135Z,72.42
2019-02-15T06:59:51.126Z,71.80
2019-02-15T07:00:51.115Z,71.90
2019-02-15T07:01:51.121Z,72.24
2019-02-15T07:02:51.093Z,71.69
2019-02-15T07:03:51.080Z,71.80
2019-02-15T07:04:51.070Z,73.35
2019-02-15T07:05:51.055Z,75.01
2019-02-15T07:06:51.080Z,73.43
2019-02-15T07:07:51.033Z,71.94
2019-02-15T07:08:51.025Z,71.86
2019-02-15T07:09:51.012Z,71.24
2019-02-15T07:10:50.998Z,72.17
2019-02-15T07:11:50.987Z,71.48
2019-02-15T07:12:50.997Z,72.52
2019-02-15T07:13:50.964Z,72.83
2019-02-15T07:14:50.953Z,72.73
2019-02-15T07:15:50.944Z,72.42
2019-02-15T07:16:50.940Z,71.90
2019-02-15T07:17:50.937Z,72.42
2019-02-15T07:18:50.906Z,72.31
2019-02-15T07:19:50.897Z,72.94
2019-02-15T07:20:50.883Z,72.94
2019-02-15T07:21:50.874Z,72.94
2019-02-15T07:22:50.887Z,71.90
2019-02-15T07:23:50.853Z,72.59
2019-02-15T07:24:50.840Z,72.73
2019-02-15T07:25:50.830Z,72.11
2019-02-15T07:26:50.817Z,72.69
2019-02-15T07:27:50.860Z,72.49
2019-02-15T07:28:50.793Z,72.38
2019-02-15T07:29:50.783Z,71.55
2019-02-15T07:30:50.771Z,71.76
2019-02-15T07:31:50.759Z,71.97
2019-02-15T07:32:50.766Z,72.73
2019-02-15T07:33:50.734Z,72.52
2019-02-15T07:34:50.725Z,72.31
2019-02-15T07:35:50.713Z,72.21
2019-02-15T07:36:50.702Z,72.21
2019-02-15T07:37:52.321Z,72.21
2019-02-15T07:38:50.679Z,72.83
2019-02-15T07:39:50.669Z,72.83
2019-02-15T07:40:50.657Z,72.94
2019-02-15T07:41:50.644Z,73.46
2019-02-15T07:42:50.673Z,73.46
2019-02-15T07:43:50.624Z,73.46
2019-02-15T07:44:50.614Z,72.94
2019-02-15T07:45:50.602Z,73.00
2019-02-15T07:46:50.588Z,72.45
2019-02-15T07:47:50.576Z,72.35
2019-02-15T07:48:50.583Z,72.42
2019-02-15T07:49:50.555Z,71.77
2019-02-15T07:50:50.543Z,70.90
2019-02-15T07:51:50.531Z,70.39
2019-02-15T07:52:50.523Z,69.76
2019-02-15T07:53:50.529Z,69.32
2019-02-15T07:54:50.500Z,68.46
2019-02-15T07:55:50.486Z,67.67
2019-02-15T07:56:50.479Z,65.61
2019-02-15T07:57:50.464Z,63.49
2019-02-15T07:58:50.493Z,62.08
2019-02-15T07:59:50.612Z,61.13
2019-02-15T08:00:50.429Z,60.38
2019-02-15T08:01:50.432Z,59.30
2019-02-15T08:02:50.406Z,57.54
2019-02-15T08:03:50.395Z,54.64
2019-02-15T08:04:50.400Z,51.67
2019-02-15T08:05:50.370Z,48.69
2019-02-15T08:06:50.357Z,46.47
2019-02-15T08:07:50.347Z,44.65
2019-02-15T08:08:50.335Z,43.37
2019-02-15T08:09:50.342Z,40.89
2019-02-15T08:10:50.313Z,39.33
2019-02-15T08:11:50.301Z,39.19
2019-02-15T08:12:50.291Z,38.16
2019-02-15T08:13:50.279Z,38.63
2019-02-15T08:14:50.283Z,36.49
2019-02-15T08:15:52.172Z,36.25
2019-02-15T08:16:50.241Z,36.05
2019-02-15T08:17:50.228Z,35.66
2019-02-15T08:18:50.219Z,36.57
2019-02-15T08:19:50.223Z,36.21
2019-02-15T08:20:50.192Z,38.48
2019-02-15T08:21:50.181Z,39.06
2019-02-15T08:22:50.171Z,41.47
2019-02-15T08:23:50.157Z,43.26
2019-02-15T08:24:50.167Z,43.94
2019-02-15T08:25:50.133Z,45.92
2019-02-15T08:26:50.131Z,46.57
2019-02-15T08:27:50.112Z,47.52
2019-02-15T08:28:50.099Z,48.86
2019-02-15T08:29:50.113Z,48.33
2019-02-15T08:30:50.076Z,46.96
2019-02-15T08:31:50.063Z,46.10
2019-02-15T08:32:50.053Z,46.10
2019-02-15T08:33:50.040Z,46.00
2019-02-15T08:34:50.028Z,45.34
2019-02-15T08:35:50.035Z,43.55
2019-02-15T08:36:50.004Z,41.03
2019-02-15T08:37:49.992Z,40.22
2019-02-15T08:38:49.982Z,38.45
2019-02-15T08:39:49.970Z,37.77
2019-02-15T08:40:49.977Z,35.92
2019-02-15T08:42:01.243Z,35.16
2019-02-15T08:42:50.935Z,35.14
2019-02-15T08:43:49.922Z,33.69
2019-02-15T08:44:49.909Z,33.55
2019-02-15T08:45:49.926Z,32.15
2019-02-15T08:46:49.887Z,33.08
2019-02-15T08:47:49.876Z,31.66
2019-02-15T08:48:49.863Z,32.05
2019-02-15T08:49:49.852Z,31.73
2019-02-15T08:50:49.862Z,31.53
2019-02-15T08:51:49.829Z,31.20
2019-02-15T08:52:49.817Z,30.90
2019-02-15T08:53:50.464Z,30.08
2019-02-15T08:54:49.794Z,29.85
2019-02-15T08:55:49.803Z,29.52
2019-02-15T08:56:49.775Z,28.81
2019-02-15T08:57:49.758Z,28.32
2019-02-15T08:58:49.749Z,28.39
2019-02-15T08:59:49.734Z,28.50
2019-02-15T09:00:49.754Z,29.49
2019-02-15T09:01:49.717Z,29.22
2019-02-15T09:02:49.700Z,28.84
2019-02-15T09:03:49.704Z,28.92
2019-02-15T09:04:49.676Z,29.22
2019-02-15T09:05:49.668Z,29.22
2019-02-15T09:06:49.673Z,29.95
2019-02-15T09:07:49.642Z,29.22
2019-02-15T09:08:49.635Z,29.01
2019-02-15T09:09:49.619Z,29.30
2019-02-15T09:10:49.610Z,27.28
2019-02-15T09:11:49.613Z,27.97
2019-02-15T09:12:49.586Z,27.24
2019-02-15T09:13:49.578Z,26.75
2019-02-15T09:14:49.560Z,26.53
2019-02-15T09:15:49.549Z,26.42
2019-02-15T09:16:49.565Z,25.71
2019-02-15T09:17:49.524Z,26.63
2019-02-15T09:18:49.514Z,26.53
2019-02-15T09:19:49.505Z,26.33
2019-02-15T09:20:49.491Z,26.70
2019-02-15T09:21:49.480Z,26.17
2019-02-15T09:22:49.487Z,26.09
2019-02-15T09:23:49.458Z,26.70
2019-02-15T09:24:49.447Z,25.90
2019-02-15T09:25:49.434Z,25.38
2019-02-15T09:26:49.424Z,25.76
2019-02-15T09:27:49.429Z,24.75
2019-02-15T09:28:49.403Z,26.20
2019-02-15T09:29:49.390Z,26.97
2019-02-15T09:30:49.377Z,25.66
2019-02-15T09:31:49.368Z,25.46
2019-02-15T09:32:49.373Z,25.36
2019-02-15T09:33:49.346Z,25.67
2019-02-15T09:34:49.336Z,25.49
2019-02-15T09:35:49.321Z,25.19
2019-02-15T09:36:49.318Z,26.17
2019-02-15T09:37:49.337Z,25.14
2019-02-15T09:38:49.286Z,24.24
2019-02-15T09:39:49.274Z,25.18
2019-02-15T09:40:49.263Z,25.27
2019-02-15T09:41:49.258Z,25.97
2019-02-15T09:42:49.245Z,25.65
2019-02-15T09:43:49.278Z,24.54
2019-02-15T09:44:49.221Z,25.74
2019-02-15T09:45:49.209Z,25.36
2019-02-15T09:46:49.197Z,25.74
2019-02-15T09:47:49.198Z,25.44
2019-02-15T09:48:49.282Z,23.93
2019-02-15T09:49:49.161Z,25.51
2019-02-15T09:50:49.149Z,24.19
2019-02-15T09:51:49.139Z,23.21
2019-02-15T09:52:49.128Z,24.23
2019-02-15T09:53:49.138Z,25.30
2019-02-15T09:54:49.104Z,24.69
2019-02-15T09:55:49.094Z,23.69
2019-02-15T09:56:49.084Z,24.49
2019-02-15T09:57:49.076Z,24.91
2019-02-15T09:58:49.081Z,25.01
2019-02-15T09:59:49.048Z,24.53
2019-02-15T10:00:49.037Z,25.21
2019-02-15T10:01:49.026Z,24.52
2019-02-15T10:02:49.014Z,25.01
2019-02-15T10:03:49.023Z,26.03
2019-02-15T10:04:49.001Z,25.66
2019-02-15T10:05:48.980Z,26.35
2019-02-15T10:06:48.969Z,25.74
2019-02-15T10:07:48.961Z,26.13
2019-02-15T10:08:48.967Z,26.70
2019-02-15T10:09:49.112Z,25.46
2019-02-15T10:10:48.926Z,23.57
2019-02-15T10:11:48.913Z,24.18
2019-02-15T10:12:48.904Z,24.72
2019-02-15T10:13:48.909Z,25.45
2019-02-15T10:14:48.880Z,25.13
2019-02-15T10:15:48.868Z,25.31
2019-02-15T10:16:48.857Z,24.78
2019-02-15T10:17:48.877Z,25.29
2019-02-15T10:18:48.859Z,23.99
2019-02-15T10:19:48.829Z,23.59
2019-02-15T10:20:48.814Z,23.89
2019-02-15T10:21:48.801Z,24.66
2019-02-15T10:22:48.791Z,25.20
2019-02-15T10:23:48.778Z,25.90
2019-02-15T10:24:48.785Z,25.84
2019-02-15T10:25:48.756Z,25.04
2019-02-15T10:26:48.744Z,25.43
2019-02-15T10:27:48.733Z,26.23
2019-02-15T10:28:48.724Z,26.50
2019-02-15T10:29:48.737Z,25.90
2019-02-15T10:30:48.708Z,25.12
2019-02-15T10:31:48.686Z,26.31
2019-02-15T10:32:48.676Z,25.10
2019-02-15T10:33:48.668Z,26.01
2019-02-15T10:34:48.681Z,25.77
2019-02-15T10:35:48.646Z,25.25
2019-02-15T10:36:48.632Z,23.86
2019-02-15T10:37:48.624Z,24.77
2019-02-15T10:38:48.628Z,25.49
2019-02-15T10:39:48.597Z,25.86
2019-02-15T10:40:48.605Z,25.30
2019-02-15T10:41:48.574Z,26.20
2019-02-15T10:42:48.567Z,25.48
2019-02-15T10:43:48.551Z,23.66
2019-02-15T10:44:48.541Z,24.19
2019-02-15T10:45:48.547Z,24.97
2019-02-15T10:46:48.523Z,24.35
2019-02-15T10:47:48.506Z,24.37
2019-02-15T10:48:48.496Z,23.79
2019-02-15T10:49:48.485Z,25.19
2019-02-15T10:50:48.494Z,25.98
2019-02-15T10:51:48.465Z,25.30
2019-02-15T10:52:48.448Z,26.18
2019-02-15T10:53:48.443Z,25.56
2019-02-15T10:54:48.427Z,24.65
2019-02-15T10:55:48.444Z,25.84
2019-02-15T10:56:48.405Z,23.92
2019-02-15T10:57:48.394Z,24.02
2019-02-15T10:58:48.384Z,22.85
2019-02-15T10:59:48.370Z,24.65
2019-02-15T11:00:48.379Z,25.15
2019-02-15T11:01:48.351Z,25.05
2019-02-15T11:02:48.339Z,24.97
2019-02-15T11:03:48.325Z,25.18
2019-02-15T11:04:48.313Z,25.98
2019-02-15T11:05:48.323Z,26.31
2019-02-15T11:06:48.292Z,25.99
2019-02-15T11:07:48.280Z,25.38
2019-02-15T11:08:48.271Z,26.06
2019-02-15T11:09:48.259Z,25.24
2019-02-15T11:10:48.265Z,24.33
2019-02-15T11:11:48.236Z,24.83
2019-02-15T11:12:48.224Z,24.16
2019-02-15T11:13:48.214Z,25.34
2019-02-15T11:14:48.209Z,24.84
2019-02-15T11:15:48.210Z,23.55
2019-02-15T11:16:48.190Z,24.74
2019-02-15T11:17:48.194Z,23.72
2019-02-15T11:18:48.161Z,23.54
2019-02-15T11:19:48.145Z,23.83
2019-02-15T11:20:48.156Z,24.36
2019-02-15T11:21:48.122Z,24.76
2019-02-15T11:22:48.117Z,24.16
2019-02-15T11:23:48.100Z,25.25
2019-02-15T11:24:48.089Z,25.33
2019-02-15T11:25:48.080Z,23.83
2019-02-15T11:26:48.088Z,22.74
2019-02-15T11:27:48.068Z,24.35
2019-02-15T11:28:48.051Z,24.15
2019-02-15T11:29:48.087Z,23.46
2019-02-15T11:30:48.067Z,25.34
2019-02-15T11:31:48.036Z,24.35
2019-02-15T11:32:47.996Z,24.78
2019-02-15T11:33:47.985Z,24.51
2019-02-15T11:34:47.974Z,25.00
2019-02-15T11:35:48.042Z,24.69
2019-02-15T11:36:48.141Z,23.59
2019-02-15T11:37:47.939Z,23.49
2019-02-15T11:38:48.061Z,24.97
2019-02-15T11:39:47.917Z,24.07
2019-02-15T11:40:48.082Z,23.08
2019-02-15T11:41:48.065Z,24.40
2019-02-15T11:42:48.038Z,24.02
2019-02-15T11:43:47.872Z,24.52
2019-02-15T11:44:47.864Z,24.53
2019-02-15T11:45:47.849Z,24.72
2019-02-15T11:46:56.261Z,24.74
2019-02-15T11:47:49.085Z,24.73
2019-02-15T11:48:48.114Z,24.91
2019-02-15T11:49:47.803Z,24.60
2019-02-15T11:50:47.801Z,23.70
2019-02-15T11:51:47.783Z,23.91
2019-02-15T11:52:47.792Z,23.02
2019-02-15T11:53:47.760Z,24.19
2019-02-15T11:54:47.747Z,24.08
2019-02-15T11:55:47.737Z,23.70
2019-02-15T11:56:47.752Z,23.41
2019-02-15T11:57:47.728Z,24.43
2019-02-15T11:58:47.725Z,24.32
2019-02-15T11:59:47.693Z,24.12
2019-02-15T12:00:47.682Z,23.71
2019-02-15T12:01:47.669Z,24.12
2019-02-15T12:02:47.663Z,23.72
2019-02-15T12:03:47.671Z,24.12
2019-02-15T12:04:47.636Z,24.42
2019-02-15T12:05:47.624Z,24.20
2019-02-15T12:06:47.614Z,23.80
2019-02-15T12:07:47.610Z,24.10
2019-02-15T12:08:47.612Z,23.58
2019-02-15T12:09:47.578Z,23.18
2019-02-15T12:10:47.569Z,23.28
2019-02-15T12:11:47.566Z,23.56
2019-02-15T12:12:47.545Z,22.45
2019-02-15T12:13:47.554Z,22.92
2019-02-15T12:14:47.523Z,23.71
2019-02-15T12:15:47.511Z,22.92
2019-02-15T12:16:47.499Z,24.02
2019-02-15T12:17:47.489Z,23.02
2019-02-15T12:18:47.496Z,22.62
2019-02-15T12:19:47.466Z,23.54
2019-02-15T12:20:47.455Z,22.55
2019-02-15T12:21:47.442Z,22.56
2019-02-15T12:22:47.434Z,22.85
2019-02-15T12:23:47.441Z,22.85
2019-02-15T12:24:47.408Z,22.85
2019-02-15T12:25:47.397Z,22.78
2019-02-15T12:26:47.386Z,22.39
2019-02-15T12:27:47.376Z,23.00
2019-02-15T12:28:47.381Z,23.79
2019-02-15T12:29:47.357Z,23.49
2019-02-15T12:30:47.341Z,23.58
2019-02-15T12:31:47.332Z,23.07
2019-02-15T12:32:47.319Z,22.48
2019-02-15T12:33:47.335Z,23.37
2019-02-15T12:34:47.322Z,22.86
2019-02-15T12:35:47.285Z,22.97
2019-02-15T12:36:47.280Z,23.28
2019-02-15T12:37:47.262Z,23.27
2019-02-15T12:38:47.291Z,22.67
2019-02-15T12:39:47.239Z,22.56
2019-02-15T12:40:47.230Z,23.26
2019-02-15T12:41:47.217Z,23.26
2019-02-15T12:42:47.209Z,24.05
2019-02-15T12:43:47.203Z,23.57
2019-02-15T12:44:47.201Z,22.51
2019-02-15T12:45:47.172Z,24.00
2019-02-15T12:46:47.160Z,23.79
2019-02-15T12:47:47.149Z,23.28
2019-02-15T12:48:47.138Z,23.84
2019-02-15T12:49:48.052Z,23.84
2019-02-15T12:50:47.134Z,23.26
2019-02-15T12:51:47.104Z,22.86
2019-02-15T12:52:47.132Z,23.67